Observation data for Dora on 06/19/2017      Previous  Date  Next       Current Mesonet Observations  Soil Data  Daily Summary Page  Observations in Plain Language
KDR1 190505Z 11008KT 19/13 A3008 RMK A01 T01900132  RH  070%=      5-min Rain = 0
KDR1 190510Z 11007KT 19/13 A3008 RMK A01 T01890132  RH  071%=      5-min Rain = 0
KDR1 190515Z 12007KT 19/13 A3008 RMK A01 T01890133  RH  071%=      5-min Rain = 0
KDR1 190520Z 12007KT 19/13 A3008 RMK A01 T01880133  RH  072%=      5-min Rain = 0
KDR1 190525Z 12007KT 19/13 A3008 RMK A01 T01870133  RH  072%=      5-min Rain = 0
KDR1 190530Z 12007KT 19/13 A3008 RMK A01 T01880133  RH  072%=      5-min Rain = 0
KDR1 190535Z 12007KT 19/13 A3008 RMK A01 T01880133  RH  072%=      5-min Rain = 0
KDR1 190540Z 12007KT 19/13 A3008 RMK A01 T01880133  RH  072%=      5-min Rain = 0
KDR1 190545Z 12006KT 19/13 A3008 RMK A01 T01880133  RH  072%=      5-min Rain = 0
KDR1 190550Z 12007KT 19/13 A3008 RMK A01 T01870133  RH  072%=      5-min Rain = 0
KDR1 190555Z 12007KT 19/13 A3008 RMK A01 T01850133  RH  073%=      5-min Rain = 0
KDR1 190600Z 11007KT 18/13 A3008 RMK A01 T01840133  RH  073%=      5-min Rain = 0
KDR1 190605Z 11007KT 19/13 A3008 RMK A01 T01850133  RH  073%=      5-min Rain = 0
KDR1 190610Z 11007KT 19/13 A3008 RMK A01 T01870134  RH  072%=      5-min Rain = 0
KDR1 190615Z 11008KT 19/13 A3008 RMK A01 T01880133  RH  072%=      5-min Rain = 0
KDR1 190620Z 11007KT 19/13 A3008 RMK A01 T01850133  RH  073%=      5-min Rain = 0
KDR1 190625Z 11006KT 18/13 A3008 RMK A01 T01820132  RH  074%=      5-min Rain = 0
KDR1 190630Z 10004KT 18/13 A3009 RMK A01 T01790131  RH  075%=      5-min Rain = 0
KDR1 190635Z 10004KT 18/13 A3009 RMK A01 T01770131  RH  076%=      5-min Rain = 0
KDR1 190640Z 10004KT 18/13 A3009 RMK A01 T01760131  RH  077%=      5-min Rain = 0
KDR1 190645Z 09005KT 17/13 A3009 RMK A01 T01740131  RH  077%=      5-min Rain = 0
KDR1 190650Z 10005KT 17/13 A3009 RMK A01 T01740131  RH  077%=      5-min Rain = 0
KDR1 190655Z 10005KT 17/13 A3009 RMK A01 T01720130  RH  078%=      5-min Rain = 0
KDR1 190700Z 10006KT 17/13 A3009 RMK A01 T01700130  RH  079%=      5-min Rain = 0
KDR1 190705Z 10005KT 17/13 A3009 RMK A01 T01700130  RH  079%=      5-min Rain = 0
KDR1 190710Z 11006KT 17/13 A3009 RMK A01 T01670129  RH  080%=      5-min Rain = 0
KDR1 190715Z 11005KT 17/13 A3009 RMK A01 T01650129  RH  081%=      5-min Rain = 0
KDR1 190720Z 11006KT 16/13 A3009 RMK A01 T01640130  RH  082%=      5-min Rain = 0
KDR1 190725Z 11006KT 17/13 A3009 RMK A01 T01680132  RH  081%=      5-min Rain = 0
KDR1 190730Z 11007KT 17/13 A3009 RMK A01 T01720133  RH  079%=      5-min Rain = 0
KDR1 190735Z 11008KT 17/13 A3009 RMK A01 T01730133  RH  079%=      5-min Rain = 0
KDR1 190740Z 11007KT 17/13 A3009 RMK A01 T01730132  RH  078%=      5-min Rain = 0
KDR1 190745Z 10007KT 17/13 A3009 RMK A01 T01740132  RH  078%=      5-min Rain = 0
KDR1 190750Z 10008KT 17/13 A3009 RMK A01 T01740132  RH  078%=      5-min Rain = 0
KDR1 190755Z 10008KT 17/13 A3009 RMK A01 T01740132  RH  078%=      5-min Rain = 0
KDR1 190800Z 10007KT 17/13 A3009 RMK A01 T01730132  RH  078%=      5-min Rain = 0
KDR1 190805Z 11008KT 17/13 A3009 RMK A01 T01730132  RH  078%=      5-min Rain = 0
KDR1 190810Z 10008KT 17/13 A3009 RMK A01 T01740132  RH  078%=      5-min Rain = 0
KDR1 190815Z 11009KT 17/13 A3009 RMK A01 T01740133  RH  078%=      5-min Rain = 0
KDR1 190820Z 10008KT 18/13 A3009 RMK A01 T01750133  RH  078%=      5-min Rain = 0
KDR1 190825Z 10008KT 17/13 A3009 RMK A01 T01740132  RH  078%=      5-min Rain = 0
KDR1 190830Z 09009KT 17/13 A301 RMK A01 T01730132  RH  078%=      5-min Rain = 0
KDR1 190835Z 09009KT 17/13 A301 RMK A01 T01710132  RH  079%=      5-min Rain = 0
KDR1 190840Z 10009KT 17/13 A301 RMK A01 T01700132  RH  079%=      5-min Rain = 0
KDR1 190845Z 10009KT 17/13 A3009 RMK A01 T01710132  RH  079%=      5-min Rain = 0
KDR1 190850Z 10009KT 17/13 A3009 RMK A01 T01710132  RH  079%=      5-min Rain = 0
KDR1 190855Z 10009KT 17/13 A301 RMK A01 T01710132  RH  079%=      5-min Rain = 0
KDR1 190900Z 10007KT 17/13 A301 RMK A01 T01710132  RH  079%=      5-min Rain = 0
KDR1 190905Z 10008KT 17/13 A3011 RMK A01 T01700133  RH  080%=      5-min Rain = 0
KDR1 190910Z 11008KT 17/13 A301 RMK A01 T01690133  RH  081%=      5-min Rain = 0
KDR1 190915Z 11008KT 17/13 A301 RMK A01 T01690134  RH  081%=      5-min Rain = 0
KDR1 190920Z 12008KT 17/14 A301 RMK A01 T01680135  RH  082%=      5-min Rain = 0
KDR1 190925Z 11009KT 17/14 A301 RMK A01 T01680136  RH  083%=      5-min Rain = 0
KDR1 190930Z 11008KT 17/14 A301 RMK A01 T01680137  RH  084%=      5-min Rain = 0
KDR1 190935Z 10008KT 17/14 A301 RMK A01 T01680138  RH  084%=      5-min Rain = 0
KDR1 190940Z 11007KT 17/14 A301 RMK A01 T01670138  RH  085%=      5-min Rain = 0
KDR1 190945Z 12008KT 17/14 A3009 RMK A01 T01650138  RH  086%=      5-min Rain = 0
KDR1 190950Z 11008KT 17/14 A3009 RMK A01 T01650139  RH  087%=      5-min Rain = 0
KDR1 190955Z 11007KT 17/14 A301 RMK A01 T01650140  RH  087%=      5-min Rain = 0
KDR1 191000Z 11008KT 17/14 A3009 RMK A01 T01650141  RH  088%=      5-min Rain = 0
KDR1 191005Z 11008KT 16/14 A3009 RMK A01 T01640142  RH  089%=      5-min Rain = 0
KDR1 191010Z 11008KT 16/14 A3009 RMK A01 T01640143  RH  089%=      5-min Rain = 0
KDR1 191015Z 11008KT 16/14 A3009 RMK A01 T01640143  RH  089%=      5-min Rain = 0
KDR1 191020Z 11009KT 17/14 A3009 RMK A01 T01650144  RH  089%=      5-min Rain = 0
KDR1 191025Z 10009KT 17/15 A301 RMK A01 T01660145  RH  089%=      5-min Rain = 0
KDR1 191030Z 11008KT 17/14 A301 RMK A01 T01660144  RH  089%=      5-min Rain = 0
KDR1 191035Z 10009KT 17/15 A301 RMK A01 T01660145  RH  089%=      5-min Rain = 0
KDR1 191040Z 10010KT 17/15 A3009 RMK A01 T01670146  RH  089%=      5-min Rain = 0
KDR1 191045Z 09010KT 17/15 A301 RMK A01 T01670146  RH  089%=      5-min Rain = 0
KDR1 191050Z 10009KT 17/15 A301 RMK A01 T01660146  RH  089%=      5-min Rain = 0
KDR1 191055Z 10008KT 17/15 A301 RMK A01 T01660145  RH  090%=      5-min Rain = 0
KDR1 191100Z 10008KT 17/15 A301 RMK A01 T01650145  RH  090%=      5-min Rain = 0
KDR1 191105Z 10007KT 17/15 A3011 RMK A01 T01650145  RH  090%=      5-min Rain = 0
KDR1 191110Z 10007KT 17/15 A301 RMK A01 T01650145  RH  090%=      5-min Rain = 0
KDR1 191115Z 10007KT 17/15 A301 RMK A01 T01650145  RH  090%=      5-min Rain = 0
KDR1 191120Z 10006KT 17/15 A3011 RMK A01 T01650145  RH  090%=      5-min Rain = 0
KDR1 191125Z 10006KT 17/15 A3011 RMK A01 T01650145  RH  090%=      5-min Rain = 0
KDR1 191130Z 10006KT 17/15 A3011 RMK A01 T01650145  RH  090%=      5-min Rain = 0
KDR1 191135Z 10006KT 17/15 A3011 RMK A01 T01650145  RH  090%=      5-min Rain = 0
KDR1 191140Z 10003KT 17/14 A3012 RMK A01 T01650144  RH  089%=      5-min Rain = 0
KDR1 191145Z 09003KT 17/14 A3012 RMK A01 T01650143  RH  089%=      5-min Rain = 0
KDR1 191150Z 09003KT 16/14 A3012 RMK A01 T01640143  RH  089%=      5-min Rain = 0
KDR1 191155Z 09004KT 16/14 A3012 RMK A01 T01630142  RH  089%=      5-min Rain = 0
KDR1 191200Z 09004KT 16/14 A3012 RMK A01 T01640143  RH  089%=      5-min Rain = 0
KDR1 191205Z 07005KT 17/14 A3012 RMK A01 T01650143  RH  089%=      5-min Rain = 0
KDR1 191210Z 07004KT 17/14 A3013 RMK A01 T01680144  RH  088%=      5-min Rain = 0
KDR1 191215Z 07004KT 17/15 A3013 RMK A01 T01710145  RH  086%=      5-min Rain = 0
KDR1 191220Z 07003KT 18/15 A3013 RMK A01 T01750145  RH  084%=      5-min Rain = 0
KDR1 191225Z 08004KT 18/14 A3013 RMK A01 T01780144  RH  082%=      5-min Rain = 0
KDR1 191230Z 07005KT 18/14 A3013 RMK A01 T01800143  RH  081%=      5-min Rain = 0
KDR1 191235Z 08005KT 18/14 A3013 RMK A01 T01810141  RH  079%=      5-min Rain = 0
KDR1 191240Z 07005KT 18/14 A3013 RMK A01 T01830141  RH  078%=      5-min Rain = 0
KDR1 191245Z 07004KT 19/14 A3014 RMK A01 T01850140  RH  077%=      5-min Rain = 0
KDR1 191250Z 06005KT 19/14 A3014 RMK A01 T01860139  RH  076%=      5-min Rain = 0
KDR1 191255Z 07004KT 19/14 A3014 RMK A01 T01880139  RH  075%=      5-min Rain = 0
KDR1 191300Z 08005KT 19/14 A3015 RMK A01 T01890137  RH  073%=      5-min Rain = 0
KDR1 191305Z 08004KT 19/14 A3015 RMK A01 T01920137  RH  072%=      5-min Rain = 0
KDR1 191310Z 07006KT 19/14 A3015 RMK A01 T01930137  RH  071%=      5-min Rain = 0
KDR1 191315Z 08004KT 19/14 A3015 RMK A01 T01930137  RH  071%=      5-min Rain = 0
KDR1 191320Z 07005KT 20/14 A3015 RMK A01 T01950137  RH  071%=      5-min Rain = 0
KDR1 191325Z 07005KT 20/14 A3015 RMK A01 T01970137  RH  070%=      5-min Rain = 0
KDR1 191330Z 08005KT 20/14 A3015 RMK A01 T01990137  RH  069%=      5-min Rain = 0
KDR1 191335Z 07004KT 20/14 A3015 RMK A01 T02010137  RH  068%=      5-min Rain = 0
KDR1 191340Z 05004KT 21/14 A3015 RMK A01 T02050138  RH  067%=      5-min Rain = 0
KDR1 191345Z 04005KT 21/14 A3015 RMK A01 T02050137  RH  066%=      5-min Rain = 0
KDR1 191350Z 06004KT 21/14 A3015 RMK A01 T02050138  RH  067%=      5-min Rain = 0
KDR1 191355Z 07004KT 21/14 A3015 RMK A01 T02080137  RH  065%=      5-min Rain = 0
KDR1 191400Z 05003KT 21/14 A3015 RMK A01 T02100138  RH  065%=      5-min Rain = 0
KDR1 191405Z 06004KT 21/14 A3016 RMK A01 T02100138  RH  065%=      5-min Rain = 0
KDR1 191410Z 09004KT 22/14 A3016 RMK A01 T02150139  RH  063%=      5-min Rain = 0
KDR1 191415Z 08002KT 22/14 A3016 RMK A01 T02150138  RH  063%=      5-min Rain = 0
KDR1 191420Z 07004KT 22/14 A3016 RMK A01 T02170139  RH  062%=      5-min Rain = 0
KDR1 191425Z 07002KT 22/14 A3016 RMK A01 T02210139  RH  061%=      5-min Rain = 0
KDR1 191430Z 05004KT 22/14 A3017 RMK A01 T02230138  RH  060%=      5-min Rain = 0
KDR1 191435Z 05002KT 22/14 A3017 RMK A01 T02240139  RH  060%=      5-min Rain = 0
KDR1 191440Z 06004KT 23/14 A3017 RMK A01 T02270139  RH  059%=      5-min Rain = 0
KDR1 191445Z 07004KT 23/14 A3017 RMK A01 T02280140  RH  059%=      5-min Rain = 0
KDR1 191450Z 10003KT 23/14 A3017 RMK A01 T02280140  RH  059%=      5-min Rain = 0
KDR1 191455Z 11003KT 23/14 A3017 RMK A01 T02330140  RH  057%=      5-min Rain = 0
KDR1 191500Z 04003KT 24/14 A3017 RMK A01 T02380140  RH  056%=      5-min Rain = 0
KDR1 191505Z 08003KT 23/14 A3017 RMK A01 T02330140  RH  057%=      5-min Rain = 0
KDR1 191510Z 06004KT 24/14 A3017 RMK A01 T02370141  RH  056%=      5-min Rain = 0
KDR1 191515Z 03005KT 24/14 A3017 RMK A01 T02370141  RH  056%=      5-min Rain = 0
KDR1 191520Z 03003KT 24/14 A3017 RMK A01 T02430143  RH  055%=      5-min Rain = 0
KDR1 191525Z 07003G8KT 24/14 A3017 RMK A01 T02430142  RH  055%=      5-min Rain = 0
KDR1 191530Z 07005KT 24/14 A3017 RMK A01 T02430143  RH  054%=      5-min Rain = 0
KDR1 191535Z 02004KT 24/14 A3017 RMK A01 T02420142  RH  055%=      5-min Rain = 0
KDR1 191540Z 05004KT 24/14 A3017 RMK A01 T02410142  RH  055%=      5-min Rain = 0
KDR1 191545Z 04005KT 25/14 A3017 RMK A01 T02470143  RH  054%=      5-min Rain = 0
KDR1 191550Z 06006KT 25/14 A3018 RMK A01 T02490144  RH  053%=      5-min Rain = 0
KDR1 191555Z 05004G9KT 25/14 A3017 RMK A01 T02520144  RH  052%=      5-min Rain = 0
KDR1 191600Z 06005KT 25/14 A3017 RMK A01 T02510144  RH  053%=      5-min Rain = 0
KDR1 191605Z 08006KT 25/14 A3017 RMK A01 T02530144  RH  052%=      5-min Rain = 0
KDR1 191610Z 07005KT 25/14 A3017 RMK A01 T02540144  RH  052%=      5-min Rain = 0
KDR1 191615Z 00004KT 25/14 A3017 RMK A01 T02530144  RH  052%=      5-min Rain = 0
KDR1 191620Z 00006G11KT 26/15 A3017 RMK A01 T02580145  RH  051%=      5-min Rain = 0
KDR1 191625Z 02006KT 26/15 A3017 RMK A01 T02600145  RH  050%=      5-min Rain = 0
KDR1 191630Z 05005KT 27/14 A3017 RMK A01 T02650144  RH  048%=      5-min Rain = 0
KDR1 191635Z 09006KT 26/14 A3017 RMK A01 T02640144  RH  049%=      5-min Rain = 0
KDR1 191640Z 02003G8KT 26/14 A3017 RMK A01 T02640143  RH  048%=      5-min Rain = 0
KDR1 191645Z 07006KT 27/14 A3017 RMK A01 T02670143  RH  048%=      5-min Rain = 0
KDR1 191650Z 07003KT 26/14 A3017 RMK A01 T02620142  RH  049%=      5-min Rain = 0
KDR1 191655Z 07007KT 27/14 A3017 RMK A01 T02700143  RH  047%=      5-min Rain = 0
KDR1 191700Z 07006KT 27/14 A3017 RMK A01 T02710143  RH  046%=      5-min Rain = 0
KDR1 191705Z 06003KT 27/14 A3017 RMK A01 T02670143  RH  047%=      5-min Rain = 0
KDR1 191710Z 10006KT 28/14 A3017 RMK A01 T02750143  RH  045%=      5-min Rain = 0
KDR1 191715Z 08008G13KT 28/14 A3017 RMK A01 T02770143  RH  045%=      5-min Rain = 0
KDR1 191720Z 08008KT 28/14 A3017 RMK A01 T02800143  RH  044%=      5-min Rain = 0
KDR1 191725Z 06004G9KT 28/14 A3017 RMK A01 T02770141  RH  044%=      5-min Rain = 0
KDR1 191730Z 08009G14KT 28/14 A3017 RMK A01 T02800142  RH  044%=      5-min Rain = 0
KDR1 191735Z 07006G11KT 28/14 A3017 RMK A01 T02830142  RH  043%=      5-min Rain = 0
KDR1 191740Z 08005G10KT 28/14 A3017 RMK A01 T02820143  RH  044%=      5-min Rain = 0
KDR1 191745Z 09006KT 28/14 A3017 RMK A01 T02800142  RH  044%=      5-min Rain = 0
KDR1 191750Z 08005G10KT 27/14 A3017 RMK A01 T02740143  RH  046%=      5-min Rain = 0
KDR1 191755Z 07007G13KT 29/14 A3017 RMK A01 T02860141  RH  042%=      5-min Rain = 0
KDR1 191800Z 08008G15KT 29/14 A3017 RMK A01 T02870141  RH  042%=      5-min Rain = 0
KDR1 191805Z 07005KT 28/14 A3016 RMK A01 T02800141  RH  044%=      5-min Rain = 0
KDR1 191810Z 06003KT 29/14 A3016 RMK A01 T02920144  RH  041%=      5-min Rain = 0
KDR1 191815Z 08008G13KT 30/14 A3016 RMK A01 T02960142  RH  040%=      5-min Rain = 0
KDR1 191820Z 07007G12KT 30/14 A3016 RMK A01 T02960141  RH  039%=      5-min Rain = 0
KDR1 191825Z 07008G14KT 30/14 A3016 RMK A01 T03020141  RH  038%=      5-min Rain = 0
KDR1 191830Z 04007G12KT 29/14 A3016 RMK A01 T02940140  RH  040%=      5-min Rain = 0
KDR1 191835Z 06005KT 30/14 A3016 RMK A01 T02950141  RH  040%=      5-min Rain = 0
KDR1 191840Z 12007G14KT 29/14 A3016 RMK A01 T02880140  RH  041%=      5-min Rain = 0
KDR1 191845Z 07008G15KT 29/14 A3016 RMK A01 T02900139  RH  040%=      5-min Rain = 0
KDR1 191850Z 05008KT 30/14 A3016 RMK A01 T03030138  RH  037%=      5-min Rain = 0
KDR1 191855Z 08008G14KT 30/14 A3016 RMK A01 T03040141  RH  038%=      5-min Rain = 0
KDR1 191900Z 08005G18KT 30/14 A3016 RMK A01 T02970140  RH  039%=      5-min Rain = 0
KDR1 191905Z 08011KT 29/14 A3016 RMK A01 T02940138  RH  039%=      5-min Rain = 0
KDR1 191910Z 08009KT 30/14 A3016 RMK A01 T03040138  RH  037%=      5-min Rain = 0
KDR1 191915Z 09006G12KT 30/14 A3016 RMK A01 T03020139  RH  038%=      5-min Rain = 0
KDR1 191920Z 09006G12KT 30/14 A3016 RMK A01 T03000138  RH  038%=      5-min Rain = 0
KDR1 191925Z 08009G15KT 30/14 A3015 RMK A01 T03020137  RH  037%=      5-min Rain = 0
KDR1 191930Z 08010KT 30/14 A3015 RMK A01 T03040137  RH  037%=      5-min Rain = 0
KDR1 191935Z 07009G14KT 31/14 A3015 RMK A01 T03050135  RH  036%=      5-min Rain = 0
KDR1 191940Z 09008G14KT 31/14 A3015 RMK A01 T03070136  RH  036%=      5-min Rain = 0
KDR1 191945Z 06007KT 31/14 A3015 RMK A01 T03110135  RH  035%=      5-min Rain = 0
KDR1 191950Z 09007G15KT 31/14 A3014 RMK A01 T03110135  RH  035%=      5-min Rain = 0
KDR1 191955Z 10009G19KT 31/14 A3014 RMK A01 T03110135  RH  035%=      5-min Rain = 0
KDR1 192000Z 09008G15KT 31/13 A3014 RMK A01 T03100132  RH  034%=      5-min Rain = 0
KDR1 192005Z 11007G13KT 31/13 A3014 RMK A01 T03120130  RH  034%=      5-min Rain = 0
KDR1 192010Z 07009G16KT 32/13 A3014 RMK A01 T03170131  RH  033%=      5-min Rain = 0
KDR1 192015Z 05009G15KT 32/13 A3014 RMK A01 T03170130  RH  032%=      5-min Rain = 0
KDR1 192020Z 06009KT 31/13 A3014 RMK A01 T03140127  RH  033%=      5-min Rain = 0
KDR1 192025Z 10006G12KT 31/12 A3014 RMK A01 T03110124  RH  032%=      5-min Rain = 0
KDR1 192030Z 10006G12KT 31/13 A3014 RMK A01 T03120129  RH  033%=      5-min Rain = 0
KDR1 192035Z 08008G15KT 31/13 A3014 RMK A01 T03120131  RH  034%=      5-min Rain = 0
KDR1 192040Z 07010G17KT 32/13 A3014 RMK A01 T03200134  RH  033%=      5-min Rain = 0
KDR1 192045Z 10011G18KT 32/14 A3014 RMK A01 T03190136  RH  034%=      5-min Rain = 0
KDR1 192050Z 12006G11KT 32/14 A3014 RMK A01 T03190136  RH  034%=      5-min Rain = 0
KDR1 192055Z 09007KT 31/13 A3013 RMK A01 T03120132  RH  034%=      5-min Rain = 0
KDR1 192100Z 10011G17KT 31/13 A3013 RMK A01 T03090133  RH  035%=      5-min Rain = 0
KDR1 192105Z 12010KT 32/13 A3013 RMK A01 T03220133  RH  032%=      5-min Rain = 0
KDR1 192110Z 10006G13KT 32/13 A3013 RMK A01 T03160132  RH  033%=      5-min Rain = 0
KDR1 192115Z 12008G14KT 32/13 A3013 RMK A01 T03200129  RH  032%=      5-min Rain = 0
KDR1 192120Z 11008G13KT 32/13 A3013 RMK A01 T03170131  RH  033%=      5-min Rain = 0
KDR1 192125Z 11009G14KT 32/13 A3013 RMK A01 T03190134  RH  033%=      5-min Rain = 0
KDR1 192130Z 12008G14KT 32/13 A3013 RMK A01 T03210132  RH  032%=      5-min Rain = 0
KDR1 192135Z 13008G13KT 33/13 A3012 RMK A01 T03250133  RH  032%=      5-min Rain = 0
KDR1 192140Z 10008G15KT 33/13 A3012 RMK A01 T03250128  RH  031%=      5-min Rain = 0
KDR1 192145Z 11008G14KT 33/13 A3012 RMK A01 T03250128  RH  031%=      5-min Rain = 0
KDR1 192150Z 11009G15KT 33/13 A3012 RMK A01 T03260133  RH  032%=      5-min Rain = 0
KDR1 192155Z 09009KT 33/13 A3012 RMK A01 T03250129  RH  031%=      5-min Rain = 0
KDR1 192200Z 10007G13KT 32/13 A3012 RMK A01 T03200129  RH  032%=      5-min Rain = 0
KDR1 192205Z 10006G13KT 32/13 A3011 RMK A01 T03230128  RH  031%=      5-min Rain = 0
KDR1 192210Z 09007G12KT 32/13 A3011 RMK A01 T03220127  RH  031%=      5-min Rain = 0
KDR1 192215Z 14010KT 33/13 A3011 RMK A01 T03250128  RH  031%=      5-min Rain = 0
KDR1 192220Z 12012G19KT 33/14 A3011 RMK A01 T03290135  RH  032%=      5-min Rain = 0
KDR1 192225Z 11012G19KT 32/13 A3011 RMK A01 T03180130  RH  033%=      5-min Rain = 0
KDR1 192230Z 11008KT 31/13 A3011 RMK A01 T03100130  RH  034%=      5-min Rain = 0
KDR1 192235Z 10007KT 32/13 A3011 RMK A01 T03200129  RH  032%=      5-min Rain = 0
KDR1 192240Z 11009KT 31/13 A3011 RMK A01 T03140128  RH  033%=      5-min Rain = 0
KDR1 192245Z 13007G12KT 32/13 A3011 RMK A01 T03230131  RH  032%=      5-min Rain = 0
KDR1 192250Z 11009G15KT 32/14 A3011 RMK A01 T03230135  RH  033%=      5-min Rain = 0
KDR1 192255Z 11011G16KT 32/13 A3011 RMK A01 T03230134  RH  032%=      5-min Rain = 0
KDR1 192300Z 13009KT 31/14 A3011 RMK A01 T03100135  RH  035%=      5-min Rain = 0
KDR1 192305Z 13011KT 31/13 A301 RMK A01 T03050134  RH  036%=      5-min Rain = 0
KDR1 192310Z 12008KT 31/13 A301 RMK A01 T03060133  RH  035%=      5-min Rain = 0
KDR1 192315Z 09009G14KT 32/13 A301 RMK A01 T03160131  RH  033%=      5-min Rain = 0
KDR1 192320Z 11007G12KT 32/13 A301 RMK A01 T03220131  RH  032%=      5-min Rain = 0
KDR1 192325Z 14007KT 32/14 A301 RMK A01 T03170135  RH  034%=      5-min Rain = 0
KDR1 192330Z 11011G17KT 31/14 A301 RMK A01 T03070139  RH  037%=      5-min Rain = 0
KDR1 192335Z 11012KT 32/14 A301 RMK A01 T03150138  RH  035%=      5-min Rain = 0
KDR1 192340Z 11010KT 31/14 A301 RMK A01 T03080138  RH  036%=      5-min Rain = 0
KDR1 192345Z 11009KT 30/14 A301 RMK A01 T03000138  RH  038%=      5-min Rain = 0
KDR1 192350Z 11007KT 30/14 A301 RMK A01 T03020138  RH  037%=      5-min Rain = 0
KDR1 192355Z 13005KT 32/14 A301 RMK A01 T03160142  RH  036%=      5-min Rain = 0
KDR1 200000Z 11010G15KT 32/14 A301 RMK A01 T03150141  RH  036%=      5-min Rain = 0
KDR1 200005Z 12007KT 32/14 A301 RMK A01 T03150140  RH  035%=      5-min Rain = 0
KDR1 200010Z 11010G15KT 32/14 A301 RMK A01 T03150139  RH  035%=      5-min Rain = 0
KDR1 200015Z 11006G12KT 31/14 A301 RMK A01 T03120137  RH  035%=      5-min Rain = 0
KDR1 200020Z 12008G13KT 31/14 A301 RMK A01 T03110138  RH  036%=      5-min Rain = 0
KDR1 200025Z 10011G16KT 31/14 A301 RMK A01 T03090141  RH  037%=      5-min Rain = 0
KDR1 200030Z 12011KT 31/14 A301 RMK A01 T03080142  RH  037%=      5-min Rain = 0
KDR1 200035Z 11012KT 30/14 A301 RMK A01 T03030141  RH  038%=      5-min Rain = 0
KDR1 200040Z 11011KT 30/14 A301 RMK A01 T02990139  RH  038%=      5-min Rain = 0
KDR1 200045Z 11010KT 29/14 A3011 RMK A01 T02930138  RH  039%=      5-min Rain = 0
KDR1 200050Z 11010KT 29/14 A3011 RMK A01 T02940138  RH  039%=      5-min Rain = 0
KDR1 200055Z 13010KT 30/14 A3011 RMK A01 T03010142  RH  039%=      5-min Rain = 0
KDR1 200100Z 12009KT 30/14 A3011 RMK A01 T03020142  RH  039%=      5-min Rain = 0
KDR1 200105Z 12009KT 30/14 A3011 RMK A01 T03030142  RH  038%=      5-min Rain = 0
KDR1 200110Z 10011KT 30/14 A3011 RMK A01 T02990141  RH  039%=      5-min Rain = 0
KDR1 200115Z 11010KT 30/14 A3012 RMK A01 T02970141  RH  040%=      5-min Rain = 0
KDR1 200120Z 12011KT 30/14 A3012 RMK A01 T02950143  RH  040%=      5-min Rain = 0
KDR1 200125Z 11010KT 29/15 A3012 RMK A01 T02920145  RH  041%=      5-min Rain = 0
KDR1 200130Z 11009KT 29/15 A3012 RMK A01 T02910145  RH  042%=      5-min Rain = 0
KDR1 200135Z 11008G13KT 29/15 A3012 RMK A01 T02890145  RH  042%=      5-min Rain = 0
KDR1 200140Z 12009KT 29/15 A3013 RMK A01 T02850146  RH  044%=      5-min Rain = 0
KDR1 200145Z 12008KT 28/15 A3013 RMK A01 T02810146  RH  045%=      5-min Rain = 0
KDR1 200150Z 11008KT 28/15 A3013 RMK A01 T02780146  RH  045%=      5-min Rain = 0
KDR1 200155Z 11007KT 28/15 A3013 RMK A01 T02760146  RH  046%=      5-min Rain = 0
KDR1 200200Z 11008KT 27/15 A3014 RMK A01 T02740147  RH  047%=      5-min Rain = 0
KDR1 200205Z 11008KT 27/15 A3014 RMK A01 T02730149  RH  048%=      5-min Rain = 0
KDR1 200210Z 11009KT 27/15 A3014 RMK A01 T02720151  RH  049%=      5-min Rain = 0
KDR1 200215Z 11008KT 27/15 A3014 RMK A01 T02690151  RH  049%=      5-min Rain = 0
KDR1 200220Z 11007KT 27/15 A3015 RMK A01 T02660150  RH  050%=      5-min Rain = 0
KDR1 200225Z 11006KT 26/15 A3015 RMK A01 T02630150  RH  051%=      5-min Rain = 0
KDR1 200230Z 11007KT 26/15 A3015 RMK A01 T02590150  RH  052%=      5-min Rain = 0
KDR1 200235Z 11008KT 26/15 A3015 RMK A01 T02590151  RH  052%=      5-min Rain = 0
KDR1 200240Z 11008KT 26/15 A3015 RMK A01 T02580152  RH  053%=      5-min Rain = 0
KDR1 200245Z 12008KT 26/15 A3015 RMK A01 T02560153  RH  054%=      5-min Rain = 0
KDR1 200250Z 12008KT 25/15 A3016 RMK A01 T02540153  RH  055%=      5-min Rain = 0
KDR1 200255Z 12008KT 25/15 A3016 RMK A01 T02540154  RH  055%=      5-min Rain = 0
KDR1 200300Z 12009KT 26/16 A3016 RMK A01 T02550155  RH  055%=      5-min Rain = 0
KDR1 200305Z 12009KT 26/16 A3016 RMK A01 T02560155  RH  055%=      5-min Rain = 0
KDR1 200310Z 12008KT 25/16 A3016 RMK A01 T02530155  RH  056%=      5-min Rain = 0
KDR1 200315Z 12008KT 25/16 A3016 RMK A01 T02510156  RH  057%=      5-min Rain = 0
KDR1 200320Z 12009KT 25/16 A3017 RMK A01 T02500156  RH  057%=      5-min Rain = 0
KDR1 200325Z 12009KT 25/16 A3017 RMK A01 T02500157  RH  058%=      5-min Rain = 0
KDR1 200330Z 12009KT 25/16 A3017 RMK A01 T02490158  RH  058%=      5-min Rain = 0
KDR1 200335Z 12009KT 25/16 A3017 RMK A01 T02490158  RH  058%=      5-min Rain = 0
KDR1 200340Z 12009KT 25/16 A3018 RMK A01 T02480158  RH  059%=      5-min Rain = 0
KDR1 200345Z 12009KT 25/16 A3018 RMK A01 T02470159  RH  059%=      5-min Rain = 0
KDR1 200350Z 12009KT 25/16 A3018 RMK A01 T02450159  RH  060%=      5-min Rain = 0
KDR1 200355Z 12009KT 24/16 A3018 RMK A01 T02440160  RH  061%=      5-min Rain = 0
KDR1 200400Z 12009KT 24/16 A3018 RMK A01 T02440160  RH  061%=      5-min Rain = 0
KDR1 200405Z 12009KT 24/16 A3018 RMK A01 T02420160  RH  062%=      5-min Rain = 0
KDR1 200410Z 12009KT 24/16 A3018 RMK A01 T02410160  RH  062%=      5-min Rain = 0
KDR1 200415Z 12009KT 24/16 A3019 RMK A01 T02390160  RH  063%=      5-min Rain = 0
KDR1 200420Z 12009KT 24/16 A3019 RMK A01 T02390160  RH  063%=      5-min Rain = 0
KDR1 200425Z 12010KT 24/16 A3019 RMK A01 T02390161  RH  063%=      5-min Rain = 0
KDR1 200430Z 12010KT 24/16 A3019 RMK A01 T02400161  RH  063%=      5-min Rain = 0
KDR1 200435Z 12010KT 24/16 A3019 RMK A01 T02390161  RH  063%=      5-min Rain = 0
KDR1 200440Z 12009KT 24/16 A3019 RMK A01 T02370161  RH  064%=      5-min Rain = 0
KDR1 200445Z 12010KT 24/16 A3019 RMK A01 T02350161  RH  065%=      5-min Rain = 0
KDR1 200450Z 12010KT 24/16 A3019 RMK A01 T02350161  RH  065%=      5-min Rain = 0
KDR1 200455Z 12010KT 23/16 A3019 RMK A01 T02340162  RH  065%=      5-min Rain = 0
KDR1 200500Z 12010KT 24/16 A3019 RMK A01 T02350163  RH  065%=      5-min Rain = 0

Page generated in 0.011 seconds.